createdAt,value
2019-02-17T00:01:03.353Z,0.00
2019-02-17T00:02:04.223Z,0.00
2019-02-17T00:03:56.798Z,0.00
2019-02-17T00:04:56.263Z,0.00
2019-02-17T00:06:49.151Z,0.00
2019-02-17T00:07:49.087Z,0.00
2019-02-17T00:09:44.039Z,0.00
2019-02-17T00:10:43.407Z,0.00
2019-02-17T00:12:35.817Z,0.00
2019-02-17T00:13:35.717Z,0.00
2019-02-17T00:15:30.104Z,0.00
2019-02-17T00:16:30.690Z,0.00
2019-02-17T00:18:23.516Z,0.00
2019-02-17T00:19:23.011Z,0.00
2019-02-17T00:21:16.123Z,0.00
2019-02-17T00:22:16.081Z,0.00
2019-02-17T00:24:09.969Z,0.00
2019-02-17T00:25:09.460Z,0.00
2019-02-17T00:27:02.338Z,0.00
2019-02-17T00:28:02.325Z,0.00
2019-02-17T00:29:55.206Z,0.00
2019-02-17T00:30:56.130Z,0.00
2019-02-17T00:32:48.044Z,0.00
2019-02-17T00:33:48.549Z,0.00
2019-02-17T00:35:42.428Z,0.00
2019-02-17T00:36:42.900Z,0.00
2019-02-17T00:38:34.763Z,0.00
2019-02-17T00:39:34.728Z,0.00
2019-02-17T00:41:28.579Z,0.00
2019-02-17T00:42:27.529Z,0.00
2019-02-17T00:44:20.899Z,0.00
2019-02-17T00:45:21.452Z,0.00
2019-02-17T00:47:15.303Z,0.00
2019-02-17T00:48:14.797Z,0.00
2019-02-17T00:50:08.652Z,0.00
2019-02-17T00:51:07.662Z,0.00
2019-02-17T00:53:01.090Z,0.00
2019-02-17T00:54:00.537Z,0.00
2019-02-17T00:55:55.363Z,0.00
2019-02-17T00:56:55.387Z,0.00
2019-02-17T00:58:47.244Z,0.00
2019-02-17T00:59:48.229Z,0.00
2019-02-17T01:00:48.244Z,0.00
2019-02-17T01:01:48.242Z,0.00
2019-02-17T01:02:47.735Z,0.00
2019-02-17T01:03:48.728Z,0.00
2019-02-17T01:04:48.728Z,0.00
2019-02-17T01:05:47.734Z,0.00
2019-02-17T01:06:48.168Z,0.00
2019-02-17T01:07:47.598Z,0.00
2019-02-17T01:08:47.648Z,0.00
2019-02-17T01:09:48.226Z,0.00
2019-02-17T01:10:47.703Z,0.00
2019-02-17T01:11:47.692Z,0.00
2019-02-17T01:12:47.134Z,0.00
2019-02-17T01:13:47.159Z,0.00
2019-02-17T01:14:47.151Z,0.00
2019-02-17T01:15:47.071Z,0.00
2019-02-17T01:16:47.131Z,0.00
2019-02-17T01:17:48.127Z,0.00
2019-02-17T01:18:46.663Z,0.00
2019-02-17T01:19:46.629Z,0.00
2019-02-17T01:20:46.621Z,0.00
2019-02-17T01:21:46.615Z,0.00
2019-02-17T01:22:46.593Z,0.00
2019-02-17T01:23:46.624Z,0.00
2019-02-17T01:24:46.604Z,0.00
2019-02-17T01:25:46.598Z,0.00
2019-02-17T01:26:46.563Z,0.00
2019-02-17T01:27:46.568Z,0.00
2019-02-17T01:28:46.554Z,0.00
2019-02-17T01:29:46.547Z,0.00
2019-02-17T01:30:46.568Z,0.00
2019-02-17T01:31:46.563Z,0.00
2019-02-17T01:32:46.555Z,0.00
2019-02-17T01:33:46.537Z,0.00
2019-02-17T01:34:46.515Z,0.00
2019-02-17T01:35:46.516Z,0.00
2019-02-17T01:36:46.520Z,0.00
2019-02-17T01:37:46.531Z,0.00
2019-02-17T01:38:46.504Z,0.00
2019-02-17T01:39:46.503Z,0.00
2019-02-17T01:40:46.469Z,0.00
2019-02-17T01:41:46.460Z,0.00
2019-02-17T01:42:46.453Z,0.00
2019-02-17T01:43:46.475Z,0.00
2019-02-17T01:44:46.447Z,0.00
2019-02-17T01:45:46.461Z,0.00
2019-02-17T01:46:46.423Z,0.00
2019-02-17T01:47:46.428Z,0.00
2019-02-17T01:48:46.428Z,0.00
2019-02-17T01:49:46.408Z,0.00
2019-02-17T01:50:46.406Z,0.00
2019-02-17T01:51:46.438Z,0.00
2019-02-17T01:52:48.356Z,0.00
2019-02-17T01:53:46.428Z,0.00
2019-02-17T01:54:46.400Z,0.00
2019-02-17T01:55:47.030Z,0.00
2019-02-17T01:56:46.385Z,0.00
2019-02-17T01:57:46.384Z,0.00
2019-02-17T01:58:46.361Z,0.00
2019-02-17T01:59:46.391Z,0.00
2019-02-17T02:00:46.369Z,0.00
2019-02-17T02:01:46.406Z,0.00
2019-02-17T02:02:46.359Z,0.00
2019-02-17T02:03:46.358Z,0.00
2019-02-17T02:04:46.334Z,0.00
2019-02-17T02:05:46.333Z,0.00
2019-02-17T02:06:46.320Z,0.00
2019-02-17T02:07:46.343Z,0.00
2019-02-17T02:08:46.338Z,0.00
2019-02-17T02:09:46.300Z,0.00
2019-02-17T02:10:46.287Z,0.00
2019-02-17T02:11:46.277Z,0.00
2019-02-17T02:12:46.292Z,0.00
2019-02-17T02:13:46.261Z,0.00
2019-02-17T02:14:46.251Z,0.00
2019-02-17T02:15:46.227Z,0.00
2019-02-17T02:16:46.252Z,0.00
2019-02-17T02:17:46.266Z,0.00
2019-02-17T02:18:46.267Z,0.00
2019-02-17T02:19:46.271Z,0.00
2019-02-17T02:20:46.213Z,0.00
2019-02-17T02:21:46.193Z,0.00
2019-02-17T02:22:46.253Z,0.00
2019-02-17T02:23:46.234Z,0.00
2019-02-17T02:24:46.285Z,0.00
2019-02-17T02:25:46.198Z,0.00
2019-02-17T02:26:46.225Z,0.00
2019-02-17T02:27:46.190Z,0.00
2019-02-17T02:28:46.293Z,0.00
2019-02-17T02:29:46.205Z,0.00
2019-02-17T02:30:46.139Z,0.00
2019-02-17T02:31:47.905Z,0.00
2019-02-17T02:32:46.144Z,0.00
2019-02-17T02:33:46.166Z,0.00
2019-02-17T02:34:46.158Z,0.00
2019-02-17T02:35:46.112Z,0.00
2019-02-17T02:36:46.223Z,0.00
2019-02-17T02:37:46.202Z,0.00
2019-02-17T02:38:46.150Z,0.00
2019-02-17T02:39:46.135Z,0.00
2019-02-17T02:40:46.187Z,0.00
2019-02-17T02:41:46.284Z,0.00
2019-02-17T02:42:48.077Z,0.00
2019-02-17T02:43:47.946Z,0.00
2019-02-17T02:44:48.712Z,0.00
2019-02-17T02:45:46.093Z,0.00
2019-02-17T02:46:46.085Z,0.00
2019-02-17T02:47:46.098Z,0.00
2019-02-17T02:48:46.119Z,0.00
2019-02-17T02:49:46.157Z,0.00
2019-02-17T02:50:46.379Z,0.00
2019-02-17T02:51:48.097Z,0.00
2019-02-17T02:52:46.264Z,0.00
2019-02-17T02:53:46.219Z,0.00
2019-02-17T02:54:49.930Z,0.00
2019-02-17T02:55:45.961Z,0.00
2019-02-17T02:56:45.946Z,0.00
2019-02-17T02:57:45.953Z,0.00
2019-02-17T02:58:46.115Z,0.00
2019-02-17T02:59:52.370Z,0.00
2019-02-17T03:00:45.971Z,0.00
2019-02-17T03:01:45.960Z,0.00
2019-02-17T03:02:46.069Z,0.00
2019-02-17T03:03:46.186Z,0.00
2019-02-17T03:04:45.916Z,0.00
2019-02-17T03:05:45.861Z,0.00
2019-02-17T03:06:46.148Z,0.00
2019-02-17T03:07:47.976Z,0.00
2019-02-17T03:08:45.920Z,0.00
2019-02-17T03:09:45.860Z,0.00
2019-02-17T03:10:45.822Z,0.00
2019-02-17T03:11:45.814Z,0.00
2019-02-17T03:12:45.804Z,0.00
2019-02-17T03:13:45.798Z,0.00
2019-02-17T03:14:45.790Z,0.00
2019-02-17T03:15:45.784Z,0.00
2019-02-17T03:16:45.775Z,0.00
2019-02-17T03:17:45.793Z,0.00
2019-02-17T03:18:45.759Z,0.00
2019-02-17T03:19:45.758Z,0.00
2019-02-17T03:20:45.745Z,0.00
2019-02-17T03:21:45.739Z,0.00
2019-02-17T03:22:45.738Z,0.00
2019-02-17T03:23:45.743Z,0.00
2019-02-17T03:24:45.747Z,0.00
2019-02-17T03:25:45.719Z,0.00
2019-02-17T03:26:45.703Z,0.00
2019-02-17T03:27:45.694Z,0.00
2019-02-17T03:28:45.689Z,0.00
2019-02-17T03:29:45.680Z,0.00
2019-02-17T03:30:45.681Z,0.00
2019-02-17T03:31:45.679Z,0.00
2019-02-17T03:32:45.660Z,0.00
2019-02-17T03:33:45.689Z,0.00
2019-02-17T03:34:45.642Z,0.00
2019-02-17T03:35:45.636Z,0.00
2019-02-17T03:36:45.631Z,0.00
2019-02-17T03:37:45.623Z,0.00
2019-02-17T03:38:45.630Z,0.00
2019-02-17T03:39:45.605Z,0.00
2019-02-17T03:40:45.608Z,0.00
2019-02-17T03:41:45.592Z,0.00
2019-02-17T03:42:45.591Z,0.00
2019-02-17T03:43:45.584Z,0.00
2019-02-17T03:44:45.574Z,0.00
2019-02-17T03:45:45.560Z,0.00
2019-02-17T03:46:45.566Z,0.00
2019-02-17T03:47:45.547Z,0.00
2019-02-17T03:48:45.539Z,0.00
2019-02-17T03:49:45.535Z,0.00
2019-02-17T03:50:45.542Z,0.00
2019-02-17T03:51:45.533Z,0.00
2019-02-17T03:52:45.510Z,0.00
2019-02-17T03:53:45.499Z,0.00
2019-02-17T03:54:45.528Z,0.00
2019-02-17T03:55:45.487Z,0.00
2019-02-17T03:56:45.484Z,0.00
2019-02-17T03:57:45.495Z,0.00
2019-02-17T03:58:45.463Z,0.00
2019-02-17T03:59:45.480Z,0.00
2019-02-17T04:00:45.478Z,0.00
2019-02-17T04:01:45.447Z,0.00
2019-02-17T04:02:45.437Z,0.00
2019-02-17T04:03:45.426Z,0.00
2019-02-17T04:04:45.420Z,0.00
2019-02-17T04:05:45.412Z,0.00
2019-02-17T04:06:45.410Z,0.00
2019-02-17T04:07:45.396Z,0.00
2019-02-17T04:08:45.391Z,0.00
2019-02-17T04:09:45.390Z,0.00
2019-02-17T04:10:45.379Z,0.00
2019-02-17T04:11:45.433Z,0.00
2019-02-17T04:12:45.362Z,0.00
2019-02-17T04:13:45.351Z,0.00
2019-02-17T04:14:45.343Z,0.00
2019-02-17T04:15:45.336Z,0.00
2019-02-17T04:16:45.329Z,0.00
2019-02-17T04:17:45.358Z,0.00
2019-02-17T04:18:45.317Z,0.00
2019-02-17T04:19:45.304Z,0.00
2019-02-17T04:20:45.295Z,0.00
2019-02-17T04:21:45.306Z,0.00
2019-02-17T04:22:45.303Z,0.00
2019-02-17T04:23:45.273Z,0.00
2019-02-17T04:24:45.268Z,0.00
2019-02-17T04:25:45.262Z,0.00
2019-02-17T04:26:45.251Z,0.00
2019-02-17T04:27:45.258Z,0.00
2019-02-17T04:28:45.235Z,0.00
2019-02-17T04:29:45.228Z,0.00
2019-02-17T04:30:45.222Z,0.00
2019-02-17T04:31:45.248Z,0.00
2019-02-17T04:32:45.207Z,0.00
2019-02-17T04:33:45.194Z,0.00
2019-02-17T04:34:45.188Z,0.00
2019-02-17T04:35:45.194Z,0.00
2019-02-17T04:36:45.195Z,0.00
2019-02-17T04:37:45.173Z,0.00
2019-02-17T04:38:45.160Z,0.00
2019-02-17T04:39:45.152Z,0.00
2019-02-17T04:40:45.146Z,0.00
2019-02-17T04:41:45.139Z,0.00
2019-02-17T04:42:45.130Z,0.00
2019-02-17T04:43:45.140Z,0.00
2019-02-17T04:44:45.113Z,0.00
2019-02-17T04:45:45.102Z,0.00
2019-02-17T04:46:45.100Z,0.00
2019-02-17T04:47:45.117Z,0.00
2019-02-17T04:48:45.099Z,0.00
2019-02-17T04:49:45.075Z,0.00
2019-02-17T04:50:45.066Z,0.00
2019-02-17T04:51:45.090Z,0.00
2019-02-17T04:52:45.050Z,0.00
2019-02-17T04:53:45.042Z,0.00
2019-02-17T04:54:45.051Z,0.00
2019-02-17T04:55:45.041Z,0.00
2019-02-17T04:56:45.020Z,0.00
2019-02-17T04:57:45.055Z,0.00
2019-02-17T04:58:45.004Z,0.00
2019-02-17T04:59:45.009Z,0.00
2019-02-17T05:00:44.989Z,0.00
2019-02-17T05:01:44.979Z,0.00
2019-02-17T05:02:44.971Z,0.00
2019-02-17T05:03:44.965Z,0.00
2019-02-17T05:04:44.986Z,0.00
2019-02-17T05:05:44.950Z,0.00
2019-02-17T05:06:44.942Z,0.00
2019-02-17T05:07:44.932Z,0.00
2019-02-17T05:08:44.930Z,0.00
2019-02-17T05:09:44.917Z,0.00
2019-02-17T05:10:44.916Z,0.00
2019-02-17T05:11:44.923Z,0.00
2019-02-17T05:12:44.902Z,0.00
2019-02-17T05:13:44.888Z,0.00
2019-02-17T05:14:44.881Z,0.00
2019-02-17T05:15:44.869Z,0.00
2019-02-17T05:16:44.864Z,0.00
2019-02-17T05:17:44.858Z,0.00
2019-02-17T05:18:44.847Z,0.00
2019-02-17T05:19:44.840Z,0.00
2019-02-17T05:20:44.831Z,0.00
2019-02-17T05:21:44.839Z,0.00
2019-02-17T05:22:44.816Z,0.00
2019-02-17T05:23:44.832Z,0.00
2019-02-17T05:24:44.835Z,0.00
2019-02-17T05:25:44.795Z,0.00
2019-02-17T05:26:44.785Z,0.00
2019-02-17T05:27:44.777Z,0.00
2019-02-17T05:28:44.806Z,0.00
2019-02-17T05:29:44.776Z,0.00
2019-02-17T05:30:52.962Z,0.00
2019-02-17T05:31:44.779Z,0.00
2019-02-17T05:32:44.756Z,0.00
2019-02-17T05:33:44.728Z,0.00
2019-02-17T05:34:44.723Z,0.00
2019-02-17T05:35:44.740Z,0.00
2019-02-17T05:36:44.739Z,0.00
2019-02-17T05:37:44.711Z,0.00
2019-02-17T05:38:44.695Z,0.00
2019-02-17T05:39:44.686Z,0.00
2019-02-17T05:40:44.682Z,0.00
2019-02-17T05:41:44.666Z,0.00
2019-02-17T05:42:44.699Z,0.00
2019-02-17T05:43:44.681Z,0.00
2019-02-17T05:44:44.646Z,0.00
2019-02-17T05:45:44.666Z,0.00
2019-02-17T05:46:44.633Z,0.00
2019-02-17T05:47:44.620Z,0.00
2019-02-17T05:48:44.614Z,0.00
2019-02-17T05:49:44.626Z,0.00
2019-02-17T05:50:44.599Z,0.00
2019-02-17T05:51:44.623Z,0.00
2019-02-17T05:52:44.586Z,4.00
2019-02-17T05:53:44.597Z,4.00
2019-02-17T05:54:44.564Z,0.00
2019-02-17T05:55:44.559Z,4.00
2019-02-17T05:56:44.549Z,0.00
2019-02-17T05:57:44.545Z,4.00
2019-02-17T05:58:44.533Z,0.00
2019-02-17T05:59:44.550Z,4.00
2019-02-17T06:00:44.526Z,4.00
2019-02-17T06:01:44.519Z,8.00
2019-02-17T06:02:44.501Z,4.00
2019-02-17T06:03:44.495Z,8.00
2019-02-17T06:04:44.486Z,8.00
2019-02-17T06:05:44.551Z,8.00
2019-02-17T06:06:44.471Z,12.00
2019-02-17T06:07:44.496Z,12.00
2019-02-17T06:08:44.481Z,16.00
2019-02-17T06:09:44.447Z,20.00
2019-02-17T06:10:44.443Z,24.00
2019-02-17T06:11:44.434Z,28.00
2019-02-17T06:12:44.462Z,32.00
2019-02-17T06:13:44.436Z,40.00
2019-02-17T06:14:53.847Z,44.00
2019-02-17T06:16:37.777Z,56.00
2019-02-17T06:17:37.747Z,64.00
2019-02-17T06:19:32.951Z,84.00
2019-02-17T06:20:31.053Z,92.00
2019-02-17T06:21:30.872Z,104.00
2019-02-17T06:22:30.917Z,112.00
2019-02-17T06:23:31.071Z,124.00
2019-02-17T06:24:30.687Z,132.00
2019-02-17T06:25:32.221Z,148.00
2019-02-17T06:26:30.631Z,160.00
2019-02-17T06:27:30.651Z,172.00
2019-02-17T06:28:30.639Z,188.00
2019-02-17T06:29:30.633Z,204.00
2019-02-17T06:30:30.650Z,220.00
2019-02-17T06:31:30.621Z,240.00
2019-02-17T06:32:30.578Z,256.00
2019-02-17T06:33:30.647Z,276.00
2019-02-17T06:34:30.627Z,296.00
2019-02-17T06:35:30.644Z,316.00
2019-02-17T06:36:30.668Z,336.00
2019-02-17T06:37:30.543Z,360.00
2019-02-17T06:38:30.569Z,380.00
2019-02-17T06:39:30.663Z,404.00
2019-02-17T06:40:30.611Z,428.00
2019-02-17T06:41:30.645Z,452.00
2019-02-17T06:42:30.533Z,476.00
2019-02-17T06:43:30.543Z,500.00
2019-02-17T06:44:30.642Z,524.00
2019-02-17T06:45:30.548Z,548.00
2019-02-17T06:46:30.502Z,572.00
2019-02-17T06:47:30.513Z,600.00
2019-02-17T06:48:30.497Z,624.00
2019-02-17T06:49:31.276Z,652.00
2019-02-17T06:52:50.593Z,772.00
2019-02-17T06:53:49.792Z,804.00
2019-02-17T06:56:10.937Z,1244.00
2019-02-17T06:57:11.456Z,1272.00
2019-02-17T06:58:10.600Z,1156.00
2019-02-17T06:59:10.600Z,1180.00
2019-02-17T07:00:12.587Z,1280.00
2019-02-17T07:01:11.823Z,1336.00
2019-02-17T07:02:10.834Z,1344.00
2019-02-17T07:03:10.817Z,1468.00
2019-02-17T07:04:11.430Z,1656.00
2019-02-17T07:05:10.371Z,2068.00
2019-02-17T07:06:10.359Z,3288.00
2019-02-17T07:07:10.354Z,5348.00
2019-02-17T07:09:04.878Z,8300.00
2019-02-17T07:10:03.762Z,7900.00
2019-02-17T07:11:57.902Z,7624.00
2019-02-17T07:12:57.597Z,7972.00
2019-02-17T07:14:51.322Z,10212.00
2019-02-17T07:15:51.044Z,11164.00
2019-02-17T07:17:44.738Z,11936.00
2019-02-17T07:18:44.441Z,14336.00
2019-02-17T07:20:38.112Z,17280.00
2019-02-17T07:21:37.829Z,17184.00
2019-02-17T07:23:30.990Z,21056.00
2019-02-17T07:24:30.718Z,20064.00
2019-02-17T07:26:24.371Z,20736.00
2019-02-17T07:27:24.370Z,18848.00
2019-02-17T07:29:17.220Z,17952.00
2019-02-17T07:30:16.981Z,18976.00
2019-02-17T07:32:10.703Z,15456.00
2019-02-17T07:33:10.414Z,10136.00
2019-02-17T07:35:03.656Z,2584.00
2019-02-17T07:36:03.328Z,2500.00
2019-02-17T07:37:56.967Z,2404.00
2019-02-17T07:38:56.953Z,2388.00
2019-02-17T07:40:50.964Z,2360.00
2019-02-17T07:41:50.684Z,2328.00
2019-02-17T07:43:44.030Z,2296.00
2019-02-17T07:44:43.640Z,2300.00
2019-02-17T07:46:36.686Z,2324.00
2019-02-17T07:47:36.502Z,2344.00
2019-02-17T07:49:30.313Z,2380.00
2019-02-17T07:50:29.886Z,2416.00
2019-02-17T07:52:24.316Z,2472.00
2019-02-17T07:53:23.744Z,2492.00
2019-02-17T07:55:16.502Z,2512.00
2019-02-17T07:56:16.562Z,2532.00
2019-02-17T07:58:09.391Z,2568.00
2019-02-17T07:59:09.264Z,2564.00
2019-02-17T08:01:02.778Z,2552.00
2019-02-17T08:02:02.491Z,2544.00
2019-02-17T08:03:55.586Z,2548.00
2019-02-17T08:04:55.360Z,2588.00
2019-02-17T08:06:49.356Z,2664.00
2019-02-17T08:07:48.989Z,2640.00
2019-02-17T08:09:42.624Z,2684.00
2019-02-17T08:10:42.355Z,2728.00
2019-02-17T08:12:35.953Z,2792.00
2019-02-17T08:13:35.772Z,2816.00
2019-02-17T08:15:28.929Z,2828.00
2019-02-17T08:16:28.639Z,2908.00
2019-02-17T08:18:21.784Z,3188.00
2019-02-17T08:19:21.530Z,4232.00
2019-02-17T08:21:14.608Z,13236.00
2019-02-17T08:22:14.377Z,14912.00
2019-02-17T08:24:07.512Z,7084.00
2019-02-17T08:25:07.229Z,10396.00
2019-02-17T08:27:00.636Z,14528.00
2019-02-17T08:28:00.615Z,17248.00
2019-02-17T08:29:54.202Z,13160.00
2019-02-17T08:30:54.038Z,11976.00
2019-02-17T08:32:47.486Z,8620.00
2019-02-17T08:33:47.452Z,8800.00
2019-02-17T08:34:47.433Z,11832.00
2019-02-17T08:35:47.454Z,12404.00
2019-02-17T08:36:47.452Z,10632.00
2019-02-17T08:37:47.682Z,10164.00
2019-02-17T08:38:47.449Z,9512.00
2019-02-17T08:39:47.438Z,9840.00
2019-02-17T08:40:47.442Z,9160.00
2019-02-17T08:41:47.448Z,8752.00
2019-02-17T08:42:47.443Z,10404.00
2019-02-17T08:43:47.493Z,12656.00
2019-02-17T08:44:47.449Z,13864.00
2019-02-17T08:45:47.479Z,13740.00
2019-02-17T08:46:47.568Z,10600.00
2019-02-17T08:47:47.458Z,12332.00
2019-02-17T08:48:47.461Z,16352.00
2019-02-17T08:49:47.466Z,17632.00
2019-02-17T08:50:47.472Z,15744.00
2019-02-17T08:51:47.478Z,12496.00
2019-02-17T08:52:47.479Z,11944.00
2019-02-17T08:53:47.525Z,14528.00
2019-02-17T08:54:47.488Z,16256.00
2019-02-17T08:55:47.510Z,15040.00
2019-02-17T08:56:47.500Z,16448.00
2019-02-17T08:57:47.503Z,20448.00
2019-02-17T08:58:47.519Z,21312.00
2019-02-17T08:59:47.516Z,21024.00
2019-02-17T09:00:47.520Z,21600.00
2019-02-17T09:01:47.549Z,22368.00
2019-02-17T09:02:47.543Z,21792.00
2019-02-17T09:03:47.554Z,21376.00
2019-02-17T09:04:47.559Z,21024.00
2019-02-17T09:05:47.557Z,18208.00
2019-02-17T09:06:47.562Z,18080.00
2019-02-17T09:07:47.571Z,20256.00
2019-02-17T09:08:47.578Z,20128.00
2019-02-17T09:09:47.607Z,17856.00
2019-02-17T09:10:47.597Z,15584.00
2019-02-17T09:11:47.614Z,17248.00
2019-02-17T09:12:47.632Z,18976.00
2019-02-17T09:13:47.621Z,22432.00
2019-02-17T09:14:47.628Z,33632.00
2019-02-17T09:15:47.638Z,50112.00
2019-02-17T09:16:47.647Z,53824.00
2019-02-17T09:17:47.656Z,56480.00
2019-02-17T09:18:47.666Z,58048.00
2019-02-17T09:19:47.674Z,56544.00
2019-02-17T09:20:47.688Z,57408.00
2019-02-17T09:21:47.696Z,55744.00
2019-02-17T09:22:47.708Z,55680.00
2019-02-17T09:23:47.725Z,54912.00
2019-02-17T09:24:47.994Z,52320.00
2019-02-17T09:25:47.978Z,52032.00
2019-02-17T09:26:47.751Z,53728.00
2019-02-17T09:27:47.769Z,55200.00
2019-02-17T09:28:48.117Z,54752.00
2019-02-17T09:29:47.782Z,55328.00
2019-02-17T09:30:48.000Z,54880.00
2019-02-17T09:31:48.016Z,55136.00
2019-02-17T09:32:48.014Z,55456.00
2019-02-17T09:33:48.055Z,54208.00
2019-02-17T09:34:47.844Z,53408.00
2019-02-17T09:35:48.068Z,50496.00
2019-02-17T09:36:47.867Z,50624.00
2019-02-17T09:37:47.879Z,50080.00
2019-02-17T09:38:47.893Z,44032.00
2019-02-17T09:39:47.906Z,44768.00
2019-02-17T09:40:48.126Z,46976.00
2019-02-17T09:41:47.929Z,42400.00
2019-02-17T09:42:47.946Z,42720.00
2019-02-17T09:43:48.098Z,50336.00
2019-02-17T09:44:48.013Z,53728.00
2019-02-17T09:45:48.003Z,56512.00
2019-02-17T09:46:48.013Z,59488.00
2019-02-17T09:47:48.051Z,57312.00
2019-02-17T09:48:48.012Z,59712.00
2019-02-17T09:49:48.027Z,57792.00
2019-02-17T09:50:48.038Z,56064.00
2019-02-17T09:51:48.053Z,51168.00
2019-02-17T09:52:48.063Z,55712.00
2019-02-17T09:53:48.075Z,56000.00
2019-02-17T09:54:48.089Z,48992.00
2019-02-17T09:55:48.102Z,33408.00
2019-02-17T09:56:48.121Z,24640.00
2019-02-17T09:57:48.125Z,28192.00
2019-02-17T09:58:48.361Z,27168.00
2019-02-17T09:59:48.149Z,37344.00
2019-02-17T10:00:48.160Z,41248.00
2019-02-17T10:01:48.170Z,42944.00
2019-02-17T10:02:48.185Z,41664.00
2019-02-17T10:03:48.191Z,48224.00
2019-02-17T10:04:48.205Z,49280.00
2019-02-17T10:05:48.216Z,56608.00
2019-02-17T10:06:48.275Z,50208.00
2019-02-17T10:07:48.243Z,60736.00
2019-02-17T10:08:48.248Z,59456.00
2019-02-17T10:09:48.262Z,60960.00
2019-02-17T10:10:48.272Z,62720.00
2019-02-17T10:11:48.282Z,63904.00
2019-02-17T10:12:48.302Z,65408.00
2019-02-17T10:13:48.307Z,65824.00
2019-02-17T10:14:48.562Z,65056.00
2019-02-17T10:15:48.331Z,64928.00
2019-02-17T10:16:48.356Z,65184.00
2019-02-17T10:17:48.357Z,63808.00
2019-02-17T10:18:48.373Z,61568.00
2019-02-17T10:19:48.380Z,61760.00
2019-02-17T10:20:48.398Z,64576.00
2019-02-17T10:21:48.410Z,66912.00
2019-02-17T10:22:48.419Z,68096.00
2019-02-17T10:23:48.437Z,67200.00
2019-02-17T10:24:48.461Z,67008.00
2019-02-17T10:25:48.462Z,68800.00
2019-02-17T10:26:48.473Z,71072.00
2019-02-17T10:27:50.473Z,69888.00
2019-02-17T10:28:48.500Z,64672.00
2019-02-17T10:29:48.515Z,65632.00
2019-02-17T10:30:48.529Z,69504.00
2019-02-17T10:31:48.545Z,71264.00
2019-02-17T10:32:48.555Z,71168.00
2019-02-17T10:33:48.569Z,72288.00
2019-02-17T10:34:48.585Z,73088.00
2019-02-17T10:35:48.603Z,71552.00
2019-02-17T10:36:50.492Z,69984.00
2019-02-17T10:37:48.643Z,66336.00
2019-02-17T10:38:48.637Z,66944.00
2019-02-17T10:39:48.653Z,69888.00
2019-02-17T10:40:48.695Z,70560.00
2019-02-17T10:41:48.688Z,69504.00
2019-02-17T10:42:48.708Z,69856.00
2019-02-17T10:43:48.710Z,69344.00
2019-02-17T10:44:55.947Z,64704.00
2019-02-17T10:46:42.224Z,15008.00
2019-02-17T10:47:42.214Z,7604.00
2019-02-17T10:48:42.291Z,6440.00
2019-02-17T10:49:49.441Z,5820.00
2019-02-17T10:51:35.383Z,5500.00
2019-02-17T10:52:35.395Z,5456.00
2019-02-17T10:54:28.325Z,5360.00
2019-02-17T10:55:28.305Z,5308.00
2019-02-17T10:57:21.238Z,5404.00
2019-02-17T10:58:21.240Z,5376.00
2019-02-17T11:00:15.147Z,5508.00
2019-02-17T11:01:15.109Z,5480.00
2019-02-17T11:03:09.097Z,5304.00
2019-02-17T11:04:08.620Z,5268.00
2019-02-17T11:06:02.732Z,5352.00
2019-02-17T11:07:01.577Z,5288.00
2019-02-17T11:08:54.430Z,5372.00
2019-02-17T11:09:54.430Z,5412.00
2019-02-17T11:11:47.361Z,5344.00
2019-02-17T11:12:47.343Z,5312.00
2019-02-17T11:14:40.214Z,5212.00
2019-02-17T11:15:40.215Z,5176.00
2019-02-17T11:17:33.127Z,5304.00
2019-02-17T11:18:33.083Z,5332.00
2019-02-17T11:20:25.989Z,5312.00
2019-02-17T11:21:25.984Z,5308.00
2019-02-17T11:23:18.905Z,5244.00
2019-02-17T11:24:18.904Z,5216.00
2019-02-17T11:26:12.403Z,5176.00
2019-02-17T11:27:12.366Z,5200.00
2019-02-17T11:29:06.210Z,5204.00
2019-02-17T11:30:06.116Z,5180.00
2019-02-17T11:31:06.030Z,5204.00
2019-02-17T11:32:06.143Z,5208.00
2019-02-17T11:33:06.122Z,5192.00
2019-02-17T11:34:05.973Z,5176.00
2019-02-17T11:35:05.995Z,5136.00
2019-02-17T11:36:06.116Z,5036.00
2019-02-17T11:37:06.017Z,5004.00
2019-02-17T11:38:06.065Z,4956.00
2019-02-17T11:39:13.395Z,4908.00
2019-02-17T11:40:59.658Z,4760.00
2019-02-17T11:41:59.513Z,4644.00
2019-02-17T11:43:55.969Z,4536.00
2019-02-17T11:44:54.158Z,4512.00
2019-02-17T11:45:55.916Z,4408.00
2019-02-17T11:46:53.987Z,4356.00
2019-02-17T11:47:54.093Z,4324.00
2019-02-17T11:48:54.001Z,4296.00
2019-02-17T11:50:02.973Z,4256.00
2019-02-17T11:51:46.959Z,4276.00
2019-02-17T11:52:46.917Z,4284.00
2019-02-17T11:54:40.471Z,4268.00
2019-02-17T11:55:40.410Z,4236.00
2019-02-17T11:57:33.330Z,4176.00
2019-02-17T11:58:33.340Z,4180.00
2019-02-17T12:00:26.234Z,4132.00
2019-02-17T12:01:26.246Z,4152.00
2019-02-17T12:02:26.341Z,4096.00
2019-02-17T12:03:26.198Z,4088.00
2019-02-17T12:04:26.203Z,4092.00
2019-02-17T12:05:26.210Z,4088.00
2019-02-17T12:06:26.212Z,4064.00
2019-02-17T12:07:26.217Z,3984.00
2019-02-17T12:08:26.220Z,3976.00
2019-02-17T12:09:26.229Z,3996.00
2019-02-17T12:10:26.229Z,3960.00
2019-02-17T12:11:26.234Z,3928.00
2019-02-17T12:12:26.240Z,3924.00
2019-02-17T12:13:26.244Z,3888.00
2019-02-17T12:14:26.249Z,3828.00
2019-02-17T12:15:26.254Z,3808.00
2019-02-17T12:16:36.555Z,3784.00
2019-02-17T12:17:26.274Z,3764.00
2019-02-17T12:18:26.267Z,3752.00
2019-02-17T12:19:26.277Z,3728.00
2019-02-17T12:20:26.278Z,3716.00
2019-02-17T12:21:26.281Z,3704.00
2019-02-17T12:22:26.287Z,3668.00
2019-02-17T12:23:26.294Z,3600.00
2019-02-17T12:24:26.294Z,3592.00
2019-02-17T12:25:26.299Z,3580.00
2019-02-17T12:26:26.309Z,3552.00
2019-02-17T12:27:26.312Z,3524.00
2019-02-17T12:28:26.311Z,3476.00
2019-02-17T12:29:26.319Z,3424.00
2019-02-17T12:30:26.335Z,3408.00
2019-02-17T12:31:26.328Z,3356.00
2019-02-17T12:32:26.334Z,3320.00
2019-02-17T12:33:26.341Z,3328.00
2019-02-17T12:34:26.350Z,3344.00
2019-02-17T12:35:26.347Z,3332.00
2019-02-17T12:36:26.352Z,3320.00
2019-02-17T12:37:26.356Z,3312.00
2019-02-17T12:38:26.361Z,3296.00
2019-02-17T12:39:26.364Z,3236.00
2019-02-17T12:40:26.369Z,3140.00
2019-02-17T12:41:26.374Z,3108.00
2019-02-17T12:42:26.378Z,3076.00
2019-02-17T12:43:26.384Z,3044.00
2019-02-17T12:44:26.387Z,2984.00
2019-02-17T12:45:26.392Z,2948.00
2019-02-17T12:46:26.395Z,2928.00
2019-02-17T12:47:26.402Z,2908.00
2019-02-17T12:48:26.406Z,2892.00
2019-02-17T12:49:26.410Z,2880.00
2019-02-17T12:50:26.490Z,2876.00
2019-02-17T12:51:26.452Z,2872.00
2019-02-17T12:52:26.428Z,2864.00
2019-02-17T12:53:28.266Z,2852.00
2019-02-17T12:54:29.190Z,2832.00
2019-02-17T12:55:26.441Z,2820.00
2019-02-17T12:56:26.440Z,2808.00
2019-02-17T12:57:26.445Z,2788.00
2019-02-17T12:58:30.056Z,2760.00
2019-02-17T12:59:26.462Z,2748.00
2019-02-17T13:00:26.456Z,2736.00
2019-02-17T13:01:26.464Z,2736.00
2019-02-17T13:02:26.476Z,2724.00
2019-02-17T13:03:28.787Z,2708.00
2019-02-17T13:04:26.472Z,2696.00
2019-02-17T13:05:26.477Z,2676.00
2019-02-17T13:06:26.691Z,2648.00
2019-02-17T13:07:26.486Z,2600.00
2019-02-17T13:08:26.491Z,2540.00
2019-02-17T13:09:33.907Z,2524.00
2019-02-17T13:11:19.651Z,2496.00
2019-02-17T13:12:19.517Z,2512.00
2019-02-17T13:14:12.912Z,2496.00
2019-02-17T13:15:12.845Z,2496.00
2019-02-17T13:17:06.680Z,2528.00
2019-02-17T13:18:08.367Z,2548.00
2019-02-17T13:20:00.307Z,2628.00
2019-02-17T13:21:02.080Z,2644.00
2019-02-17T13:22:53.016Z,2668.00
2019-02-17T13:24:00.096Z,2676.00
2019-02-17T13:25:46.552Z,2680.00
2019-02-17T13:26:46.358Z,2672.00
2019-02-17T13:28:40.708Z,2684.00
2019-02-17T13:29:40.345Z,2684.00
2019-02-17T13:30:39.128Z,2696.00
2019-02-17T13:31:39.705Z,2712.00
2019-02-17T13:32:39.126Z,2708.00
2019-02-17T13:33:39.583Z,2716.00
2019-02-17T13:34:39.399Z,2720.00
2019-02-17T13:35:39.129Z,2704.00
2019-02-17T13:36:39.131Z,2696.00
2019-02-17T13:37:39.124Z,2680.00
2019-02-17T13:38:39.124Z,2676.00
2019-02-17T13:39:39.127Z,2652.00
2019-02-17T13:40:39.130Z,2624.00
2019-02-17T13:41:39.152Z,2592.00
2019-02-17T13:42:40.652Z,2556.00
2019-02-17T13:43:39.144Z,2508.00
2019-02-17T13:44:39.146Z,2448.00
2019-02-17T13:45:39.145Z,2372.00
2019-02-17T13:46:39.154Z,2312.00
2019-02-17T13:47:39.185Z,2296.00
2019-02-17T13:48:39.158Z,2296.00
2019-02-17T13:49:39.164Z,2324.00